Share

Burgos, España

3:38 PM CEST en Abril 24, 2014 (GMT +0200)
Foronda (LEVT) Alt 1673 ft | 42.88 °N, 2.72 °W | Change Station

Current weather conditions updated 8 minutes ago

Mostly Cloudy
Muy nublado
59 ° F
Sensación térmica 59 ° F
N
14
Viento Variable Viento desde SO
Amanecer 7:19 AM
Atardecer 9:06 PM
Luna Creciente menguante

Hoy se prevé un día Más cálido que ayer. Chubascos a primera hora. tomorrow night.

Presión 29.92 pul
Visibilidad 6.2 Millas
Nubes Baja 3500 ft
Muy nublado 7000 ft
Punto de rocío 48 ° F
Humedad 67%
Precipitaciones 0.00 pul
Espesor de la nieve No disponible.
UV 5 de una escala de 16
Polen No disponible.
Calidad del aire No disponible.
Flu Activity No disponible.
METAR LEVT 241330Z 22012KT 180V250 9999 FEW035 BKN070 15/09 Q1013

More Conditions Fewer Conditions

Presión 29.92 pul
Visibilidad 6.2 Millas
Nubes Baja 3500 ft
Muy nublado 7000 ft
Punto de rocío 48 ° F
Humedad 67%
Precipitaciones 0.00 pul
Espesor de la nieve No disponible.
UV 5 de una escala de 16
Polen No disponible.
Calidad del aire No disponible.
Flu Activity No disponible.
METAR LEVT 241330Z 22012KT 180V250 9999 FEW035 BKN070 15/09 Q1013

More Conditions Fewer Conditions

10-Day Weather Forecast

Almanac

Astronomía

Apr. 24, 2014 Salida Puesta
Hora real 7:19 AM CEST 9:06 PM CEST
Crepúsculo civil 6:50 AM CEST 9:36 PM CEST
Crepúsculo náutico 6:13 AM CEST 10:12 PM CEST
Crepúsculo astronómico 5:34 AM CEST 10:52 PM CEST
Luna 4:28 AM CEST 3:59 PM CEST
Horas de luz 14h 46m
Horas de luz
13h 46m
Tomorrow will be 2m 37s longer.
Creciente menguante, 25% of the Moon is Illuminated
Hoy
Creciente menguante
Abr 29
Nueva
May 6
Cuarto creciente
May 14
Luna llena
May 21
Cuarto menguante

Extremos de ayer

Máximos del país Bajas del país

Community

  • Stacked
    Stacked
  • clouds approaching Red Sox Nation
    clouds approaching Red Sox Nation
  • Balance
    Balance
  • Citysky
    Citysky
  • Nestled In
    Nestled In

WunderPhotos

Upload Photos

1,704,605 ¡fotos cargadas!

Nearby

Calidad del aire

Not available.

Grosos de nieve

Not available.

Temperaturas de aguas costeras

Lugar Temperatura
Sin partes meteorológicos de las estaciones

Actividad de terremotos

Ciudad Distance Mag. Tiempo y dato
No hay informes recientes de la actividad sísmica.
Magnitud mínima muestra es 2,5.

Estaciones meteorológicas cercanas

No hay estaciones meteorológicas personales en esta zona.

What do you think?

We're not finished. Please let us know what you like, what you don't like, and what you are still missing.